Time;durP1;ratioP1;P1;durP2;ratioP2;P2;SDS_P1;SDS_P2;PMS_P1;PMS_P2;Temp;Humidity;BMP_temperature;BMP_pressure;BME280_temperature;BME280_humidity;BME280_pressure;Samples;Min_cycle;Max_cycle;Signal;HPM_P1;HPM_P2
2021/03/06 00:02:24;;;;;;;5.97;3.70;;;3.00;99.00;;;;;;5012048;28;20824;-67
2021/03/06 00:04:49;;;;;;;5.70;3.80;;;3.00;98.70;;;;;;5023906;28;20183;-68
2021/03/06 00:07:15;;;;;;;5.43;3.80;;;3.00;98.30;;;;;;5030344;28;20176;-67
2021/03/06 00:09:41;;;;;;;6.07;4.37;;;2.90;98.40;;;;;;5030178;28;20190;-67
2021/03/06 00:12:06;;;;;;;6.33;4.03;;;2.90;98.80;;;;;;5030316;28;20222;-67
2021/03/06 00:14:32;;;;;;;5.83;3.80;;;2.90;99.10;;;;;;5030167;28;20277;-68
2021/03/06 00:16:59;;;;;;;4.90;3.70;;;2.90;98.80;;;;;;5030253;28;20194;-69
2021/03/06 00:19:31;;;;;;;5.93;3.90;;;2.90;97.60;;;;;;5029838;28;20207;-67
2021/03/06 00:21:57;;;;;;;7.13;3.97;;;2.90;99.10;;;;;;5029931;28;20402;-68
2021/03/06 00:24:23;;;;;;;4.43;3.50;;;2.80;99.00;;;;;;5030472;28;20772;-68
2021/03/06 00:26:49;;;;;;;5.73;3.90;;;2.80;98.00;;;;;;5015994;28;20231;-68
2021/03/06 00:29:15;;;;;;;4.43;3.70;;;2.70;99.50;;;;;;4998320;28;20816;-68
2021/03/06 00:31:42;;;;;;;7.97;3.47;;;2.70;97.60;;;;;;5010379;28;20185;-66
2021/03/06 00:34:07;;;;;;;5.80;4.20;;;2.70;97.60;;;;;;5010221;28;20423;-69
2021/03/06 00:36:40;;;;;;;4.00;3.30;;;2.70;98.90;;;;;;5019901;28;20418;-68
2021/03/06 00:39:06;;;;;;;5.50;4.13;;;2.70;98.70;;;;;;5009956;28;20223;-68
2021/03/06 00:41:32;;;;;;;5.23;3.73;;;2.60;98.80;;;;;;5010367;28;20415;-68
2021/03/06 00:43:59;;;;;;;6.73;4.00;;;2.60;98.80;;;;;;5011694;28;20436;-66
2021/03/06 00:46:25;;;;;;;6.20;4.13;;;2.60;98.50;;;;;;5030067;28;20458;-67
2021/03/06 00:48:51;;;;;;;5.57;3.57;;;2.60;99.90;;;;;;5025848;28;20541;-67
2021/03/06 00:51:17;;;;;;;8.53;4.00;;;2.60;98.60;;;;;;5017250;28;20518;-66
2021/03/06 00:53:42;;;;;;;5.47;3.37;;;2.50;99.50;;;;;;5015355;28;20188;-69
2021/03/06 00:56:08;;;;;;;5.70;4.40;;;2.50;98.80;;;;;;5018613;28;20420;-68
2021/03/06 00:58:34;;;;;;;6.17;3.97;;;2.50;98.70;;;;;;5013196;28;20673;-68
2021/03/06 01:01:00;;;;;;;5.73;4.53;;;2.60;99.90;;;;;;5013887;28;20263;-67
2021/03/06 01:03:26;;;;;;;5.30;3.83;;;2.50;98.80;;;;;;5018028;28;20176;-67
2021/03/06 01:05:51;;;;;;;7.50;4.17;;;2.50;98.40;;;;;;5030336;28;20423;-67
2021/03/06 01:08:17;;;;;;;5.37;3.60;;;2.50;99.30;;;;;;5018209;28;20220;-68
2021/03/06 01:10:45;;;;;;;6.57;4.00;;;2.50;98.00;;;;;;5033304;28;20625;-67
2021/03/06 01:13:11;;;;;;;5.90;3.87;;;2.40;97.60;;;;;;5020552;28;20176;-67
2021/03/06 01:15:37;;;;;;;5.83;4.40;;;2.30;98.60;;;;;;5013373;28;20897;-68
2021/03/06 01:18:04;;;;;;;5.23;3.53;;;2.20;99.90;;;;;;5030125;28;20868;-67
2021/03/06 01:20:31;;;;;;;7.63;4.33;;;2.20;97.70;;;;;;5017746;28;20455;-68
2021/03/06 01:22:57;;;;;;;5.30;3.67;;;2.30;99.90;;;;;;5028837;28;20428;-66
2021/03/06 01:25:23;;;;;;;5.43;3.53;;;2.30;99.50;;;;;;5022972;28;20974;-66
2021/03/06 01:27:48;;;;;;;6.07;4.00;;;2.30;98.80;;;;;;5013505;28;20597;-68
2021/03/06 01:30:15;;;;;;;5.70;4.07;;;2.40;99.20;;;;;;5013036;28;20451;-69
2021/03/06 01:32:41;;;;;;;7.40;3.93;;;2.30;98.00;;;;;;5026656;28;20183;-68
2021/03/06 01:35:09;;;;;;;6.27;3.50;;;2.30;98.00;;;;;;5006318;28;20972;-66
2021/03/06 01:37:36;;;;;;;8.43;4.17;;;2.30;99.90;;;;;;5032123;28;20184;-69
2021/03/06 01:40:05;;;;;;;5.03;3.70;;;2.30;99.40;;;;;;5015449;28;20933;-68
2021/03/06 01:42:30;;;;;;;9.27;4.03;;;2.30;99.00;;;;;;5014160;28;20459;-68
2021/03/06 01:44:56;;;;;;;6.17;4.13;;;2.20;99.90;;;;;;5019545;28;20781;-67
2021/03/06 01:47:22;;;;;;;5.13;3.70;;;2.20;97.20;;;;;;5014956;28;20180;-67
2021/03/06 01:49:47;;;;;;;5.07;4.03;;;2.20;99.50;;;;;;5032473;28;20625;-68
2021/03/06 01:52:14;;;;;;;5.50;4.23;;;2.10;99.90;;;;;;5032805;28;20510;-69
2021/03/06 01:54:40;;;;;;;6.90;4.30;;;2.10;99.90;;;;;;5023996;28;20545;-67
2021/03/06 01:57:06;;;;;;;4.10;3.70;;;2.00;99.80;;;;;;5031505;28;20418;-67
2021/03/06 01:59:32;;;;;;;6.47;4.43;;;2.10;99.20;;;;;;5025288;28;20463;-67
2021/03/06 02:01:57;;;;;;;4.93;3.70;;;2.10;99.90;;;;;;5017783;28;20221;-67
2021/03/06 02:04:23;;;;;;;5.80;4.10;;;2.00;98.90;;;;;;5022084;28;20254;-69
2021/03/06 02:06:49;;;;;;;6.23;3.93;;;2.10;99.50;;;;;;5012680;28;20180;-68
2021/03/06 02:09:14;;;;;;;5.33;3.93;;;2.00;99.60;;;;;;5018499;28;20564;-68
2021/03/06 02:11:51;;;;;;;6.57;4.30;;;2.00;99.80;;;;;;5025534;28;20254;-68
2021/03/06 02:15:14;;;;;;;5.07;3.90;;;2.00;99.90;;;;;;5013029;28;20183;-68
2021/03/06 02:17:52;;;;;;;6.63;4.00;;;2.00;99.90;;;;;;4933082;29;20772;-68
2021/03/06 02:20:44;;;;;;;4.23;3.50;;;2.00;99.60;;;;;;4932717;29;20485;-69
2021/03/06 02:23:28;;;;;;;4.57;3.67;;;2.00;99.20;;;;;;4931155;29;20968;-67
2021/03/06 02:26:20;;;;;;;6.67;3.70;;;2.00;99.90;;;;;;4932234;29;20429;-67
2021/03/06 02:28:57;;;;;;;10.53;4.03;;;2.00;98.60;;;;;;4931425;29;20471;-68
2021/03/06 02:31:25;;;;;;;5.03;4.23;;;2.00;99.90;;;;;;4926098;29;20501;-67
2021/03/06 02:33:58;;;;;;;7.90;3.80;;;2.00;99.90;;;;;;4931103;29;20435;-68
2021/03/06 02:36:25;;;;;;;4.90;3.83;;;1.90;99.50;;;;;;4929054;29;20422;-67
2021/03/06 02:38:55;;;;;;;8.80;4.37;;;1.80;99.90;;;;;;4927102;29;20575;-66
2021/03/06 02:41:25;;;;;;;8.60;4.30;;;1.80;99.90;;;;;;4930768;29;20481;-67
2021/03/06 02:43:52;;;;;;;4.50;4.00;;;1.90;99.90;;;;;;4931689;29;21043;-68
2021/03/06 02:46:21;;;;;;;6.23;3.87;;;1.90;98.80;;;;;;4931507;29;20526;-68
2021/03/06 02:48:48;;;;;;;5.93;4.20;;;1.80;99.10;;;;;;4996661;28;20426;-67
2021/03/06 02:51:14;;;;;;;6.43;4.10;;;1.90;99.70;;;;;;5027353;28;20580;-67
2021/03/06 02:53:40;;;;;;;5.53;3.97;;;1.80;99.90;;;;;;5020005;28;20501;-67
2021/03/06 02:56:06;;;;;;;6.03;4.50;;;1.80;99.90;;;;;;5031340;28;20705;-68
2021/03/06 02:58:45;;;;;;;5.50;3.97;;;1.80;98.90;;;;;;5019924;28;20503;-67
2021/03/06 03:01:25;;;;;;;5.17;3.77;;;1.80;99.90;;;;;;5011675;28;20176;-67
2021/03/06 03:03:55;;;;;;;6.03;4.47;;;1.80;98.50;;;;;;5019072;28;20460;-69
2021/03/06 03:06:46;;;;;;;7.63;4.03;;;1.80;99.70;;;;;;5027905;28;20427;-67
2021/03/06 03:09:21;;;;;;;6.13;4.00;;;1.80;99.10;;;;;;5006936;28;20427;-67
2021/03/06 03:12:08;;;;;;;6.57;3.80;;;1.80;98.90;;;;;;5029692;28;20418;-67
2021/03/06 03:14:47;;;;;;;5.07;4.10;;;1.80;99.90;;;;;;5030664;28;20419;-67
2021/03/06 03:17:34;;;;;;;5.20;3.53;;;1.80;98.90;;;;;;5017141;28;20414;-67
2021/03/06 03:20:11;;;;;;;5.97;4.20;;;1.80;99.30;;;;;;5017786;28;20958;-67
2021/03/06 03:22:41;;;;;;;5.07;3.80;;;1.80;99.30;;;;;;5010703;28;20855;-68
2021/03/06 03:25:09;;;;;;;8.70;4.50;;;1.80;98.80;;;;;;5011281;28;20435;-68
2021/03/06 03:27:37;;;;;;;5.67;4.10;;;1.70;97.80;;;;;;5024915;28;20433;-68
2021/03/06 03:30:10;;;;;;;7.23;4.83;;;1.70;99.60;;;;;;5013028;28;20442;-66
2021/03/06 03:32:36;;;;;;;5.23;4.00;;;1.70;99.70;;;;;;5011732;28;20418;-66
2021/03/06 03:35:03;;;;;;;6.30;3.87;;;1.70;97.40;;;;;;5025138;28;20406;-67
2021/03/06 03:37:29;;;;;;;7.67;4.83;;;1.70;98.90;;;;;;5030602;28;20171;-69
2021/03/06 03:39:56;;;;;;;5.63;3.93;;;1.80;98.90;;;;;;5030774;28;20508;-66
2021/03/06 03:42:29;;;;;;;5.80;4.60;;;1.80;99.80;;;;;;5013506;28;20427;-67
2021/03/06 03:45:16;;;;;;;5.77;4.50;;;1.70;98.20;;;;;;5010711;28;20565;-68
2021/03/06 03:47:42;;;;;;;5.43;4.40;;;1.70;98.20;;;;;;5013376;28;20176;-69
2021/03/06 03:50:10;;;;;;;6.27;5.13;;;1.70;99.20;;;;;;5020451;28;21522;-67
2021/03/06 03:52:38;;;;;;;7.73;5.20;;;1.70;98.80;;;;;;5022492;28;20923;-68
2021/03/06 03:55:06;;;;;;;9.43;4.77;;;1.70;98.50;;;;;;5016185;28;20485;-68
2021/03/06 03:57:33;;;;;;;5.47;4.33;;;1.70;99.90;;;;;;5010805;28;20897;-67
2021/03/06 04:00:08;;;;;;;6.13;5.10;;;1.70;98.70;;;;;;5010812;28;20459;-69
2021/03/06 04:02:34;;;;;;;7.83;5.43;;;1.60;98.50;;;;;;5010975;28;20433;-70
2021/03/06 04:05:00;;;;;;;6.10;4.37;;;1.60;99.50;;;;;;5010635;28;20423;-69
2021/03/06 04:07:25;;;;;;;8.07;4.53;;;1.60;98.90;;;;;;5023533;28;20434;-69
2021/03/06 04:09:51;;;;;;;6.50;4.40;;;1.60;99.10;;;;;;5018153;28;20184;-68
2021/03/06 04:12:17;;;;;;;5.23;4.10;;;1.60;99.70;;;;;;5014502;28;20185;-69
2021/03/06 04:14:43;;;;;;;5.43;4.27;;;1.60;98.50;;;;;;5029277;28;20207;-70
2021/03/06 04:17:10;;;;;;;4.87;4.27;;;1.60;97.60;;;;;;5030318;28;20183;-69
2021/03/06 04:19:36;;;;;;;6.30;4.40;;;1.50;98.90;;;;;;5029684;28;20237;-69
2021/03/06 04:22:01;;;;;;;5.80;4.53;;;1.50;97.90;;;;;;5017761;28;20426;-69
2021/03/06 04:24:27;;;;;;;9.13;4.70;;;1.50;99.30;;;;;;5010541;28;20172;-68
2021/03/06 04:26:53;;;;;;;7.57;4.60;;;1.50;99.20;;;;;;5029474;28;20184;-69
2021/03/06 04:29:20;;;;;;;6.63;4.50;;;1.50;98.80;;;;;;5029685;28;20182;-68
2021/03/06 04:31:46;;;;;;;6.20;4.67;;;1.50;98.00;;;;;;5011044;28;20185;-69
2021/03/06 04:34:12;;;;;;;6.43;4.73;;;1.50;99.20;;;;;;5033790;28;20769;-70
2021/03/06 04:36:37;;;;;;;8.20;4.50;;;1.50;99.00;;;;;;5017779;28;20518;-68
2021/03/06 04:39:05;;;;;;;9.10;5.00;;;1.50;98.20;;;;;;5031952;28;20192;-68
2021/03/06 04:41:31;;;;;;;5.80;4.67;;;1.50;96.60;;;;;;5023399;28;20187;-68
2021/03/06 04:43:57;;;;;;;6.33;4.73;;;1.50;98.50;;;;;;5016863;28;20412;-69
2021/03/06 04:46:22;;;;;;;6.63;3.97;;;1.40;97.30;;;;;;5018686;28;20900;-69
2021/03/06 04:48:48;;;;;;;6.03;4.77;;;1.40;98.90;;;;;;5014031;28;20177;-68
2021/03/06 04:51:14;;;;;;;5.23;4.07;;;1.40;98.70;;;;;;5013892;28;20180;-69
2021/03/06 04:53:40;;;;;;;9.03;4.60;;;1.40;98.40;;;;;;5014017;28;20204;-69
2021/03/06 04:56:05;;;;;;;7.47;4.40;;;1.50;97.90;;;;;;5013586;28;20176;-69
2021/03/06 04:58:31;;;;;;;10.50;4.40;;;1.40;97.60;;;;;;5013889;28;20690;-68
2021/03/06 05:00:56;;;;;;;6.50;4.73;;;1.40;99.20;;;;;;5013818;28;20536;-70
2021/03/06 05:03:22;;;;;;;5.67;4.03;;;1.40;98.30;;;;;;5013389;28;20176;-68
2021/03/06 05:05:48;;;;;;;7.80;3.97;;;1.50;98.40;;;;;;5013770;28;20192;-68
2021/03/06 05:08:13;;;;;;;8.43;4.67;;;1.40;98.90;;;;;;5013401;28;20527;-69
2021/03/06 05:10:39;;;;;;;5.33;4.00;;;1.50;98.30;;;;;;5013679;28;20176;-68
2021/03/06 05:13:04;;;;;;;7.03;4.93;;;1.40;98.60;;;;;;5013764;28;20263;-70
2021/03/06 05:15:30;;;;;;;6.20;5.07;;;1.40;98.20;;;;;;5013425;28;20703;-68
2021/03/06 05:17:55;;;;;;;7.60;5.70;;;1.30;96.80;;;;;;5013448;28;20207;-69
2021/03/06 05:20:21;;;;;;;7.57;5.30;;;1.30;97.90;;;;;;4995407;28;20680;-68
2021/03/06 05:22:47;;;;;;;7.20;4.57;;;1.30;99.00;;;;;;5013036;28;20673;-69
2021/03/06 05:25:13;;;;;;;6.43;4.10;;;1.30;97.90;;;;;;5013159;28;20272;-68
2021/03/06 05:27:38;;;;;;;6.97;4.03;;;1.30;97.10;;;;;;5013048;28;20164;-69
2021/03/06 05:30:04;;;;;;;7.13;4.17;;;1.20;99.10;;;;;;5013274;28;20187;-69
2021/03/06 05:32:30;;;;;;;5.30;4.33;;;1.20;99.00;;;;;;5012936;28;20173;-67
2021/03/06 05:34:56;;;;;;;4.97;4.20;;;1.20;98.80;;;;;;5013194;28;20419;-68
2021/03/06 05:37:21;;;;;;;4.83;3.87;;;1.20;99.60;;;;;;5012953;28;20184;-68
2021/03/06 05:39:47;;;;;;;5.53;4.63;;;1.20;98.30;;;;;;5012831;28;20200;-68
2021/03/06 05:42:13;;;;;;;9.43;4.00;;;1.20;99.40;;;;;;5013058;28;20259;-70
2021/03/06 05:44:41;;;;;;;6.77;4.90;;;1.20;98.70;;;;;;5011988;28;20180;-67
2021/03/06 05:47:07;;;;;;;8.03;4.63;;;1.20;98.90;;;;;;4999176;28;20467;-69
2021/03/06 05:49:33;;;;;;;7.13;4.30;;;1.20;99.90;;;;;;5008598;28;20441;-68
2021/03/06 05:52:01;;;;;;;7.43;4.53;;;1.20;99.40;;;;;;4996951;28;20827;-69
2021/03/06 05:54:28;;;;;;;6.27;4.60;;;1.20;99.70;;;;;;4975473;28;20420;-69
2021/03/06 05:56:55;;;;;;;4.97;4.17;;;1.20;99.90;;;;;;4993135;28;20453;-69
2021/03/06 05:59:22;;;;;;;5.70;4.20;;;1.20;99.00;;;;;;4992911;28;20499;-68
2021/03/06 06:01:48;;;;;;;7.73;4.20;;;1.10;98.70;;;;;;4995772;28;20416;-67
2021/03/06 06:04:16;;;;;;;7.03;4.30;;;1.00;99.90;;;;;;4992990;28;20543;-67
2021/03/06 06:06:43;;;;;;;6.83;4.67;;;1.10;98.70;;;;;;5002282;28;20755;-67
2021/03/06 06:09:09;;;;;;;4.83;4.10;;;1.00;98.00;;;;;;5012576;28;20411;-68
2021/03/06 06:11:35;;;;;;;8.23;4.40;;;1.00;99.60;;;;;;4996450;28;20416;-67
2021/03/06 06:14:03;;;;;;;6.70;5.03;;;1.10;99.10;;;;;;5001143;28;20749;-70
2021/03/06 06:16:33;;;;;;;6.57;4.50;;;1.10;99.90;;;;;;5012352;28;20498;-71
2021/03/06 06:19:05;;;;;;;6.00;4.30;;;1.10;99.80;;;;;;5012370;28;20948;-67
2021/03/06 06:21:46;;;;;;;7.33;4.77;;;1.10;99.10;;;;;;4993856;28;20805;-68
2021/03/06 06:24:20;;;;;;;5.90;4.13;;;1.10;99.90;;;;;;5003485;28;20419;-68
2021/03/06 06:26:59;;;;;;;7.07;4.80;;;1.20;99.40;;;;;;4981585;28;20473;-67
2021/03/06 06:29:37;;;;;;;6.23;3.93;;;1.20;98.00;;;;;;5012285;28;20415;-69
2021/03/06 06:32:05;;;;;;;6.00;3.97;;;1.20;98.90;;;;;;5006090;28;20427;-69
2021/03/06 06:34:30;;;;;;;4.70;4.20;;;1.20;98.20;;;;;;4992458;28;20432;-70
2021/03/06 06:36:56;;;;;;;5.23;4.00;;;1.30;98.40;;;;;;4992709;28;20423;-68
2021/03/06 06:39:30;;;;;;;5.27;4.23;;;1.30;97.50;;;;;;5011754;28;20543;-69
2021/03/06 06:41:58;;;;;;;7.53;4.20;;;1.30;97.50;;;;;;5011878;28;20195;-69
2021/03/06 06:44:25;;;;;;;6.87;4.17;;;1.40;98.20;;;;;;4997497;28;20416;-68
2021/03/06 06:46:52;;;;;;;5.63;4.27;;;1.50;96.90;;;;;;5007196;28;20455;-67
2021/03/06 06:49:18;;;;;;;4.53;3.70;;;1.50;98.40;;;;;;5011902;28;20470;-68
2021/03/06 06:52:01;;;;;;;8.37;4.60;;;1.50;98.10;;;;;;5011480;28;20462;-68
2021/03/06 06:54:28;;;;;;;5.57;4.10;;;1.60;95.70;;;;;;5021129;28;20410;-66
2021/03/06 06:57:07;;;;;;;7.80;4.30;;;1.60;95.90;;;;;;5010485;28;20427;-63
2021/03/06 06:59:33;;;;;;;6.20;4.37;;;1.70;97.20;;;;;;5011625;28;20458;-69
2021/03/06 07:02:03;;;;;;;8.10;4.17;;;1.80;95.90;;;;;;5011579;28;21016;-68
2021/03/06 07:04:41;;;;;;;5.23;4.10;;;1.80;96.40;;;;;;5011588;28;20180;-70
2021/03/06 07:07:08;;;;;;;5.73;4.10;;;1.90;96.30;;;;;;5011095;28;20414;-68
2021/03/06 07:09:34;;;;;;;6.43;4.13;;;2.00;95.10;;;;;;5015227;28;20476;-66
2021/03/06 07:12:15;;;;;;;6.37;3.97;;;2.00;95.20;;;;;;5026385;28;20804;-70
2021/03/06 07:14:41;;;;;;;11.77;4.40;;;2.00;94.80;;;;;;5011165;28;20698;-68
2021/03/06 07:17:07;;;;;;;5.30;4.13;;;2.00;94.90;;;;;;5026325;28;20454;-69
2021/03/06 07:19:32;;;;;;;4.67;4.17;;;2.10;96.00;;;;;;5011037;28;20211;-68
2021/03/06 07:22:00;;;;;;;5.50;3.93;;;2.10;93.40;;;;;;5029267;28;20636;-68
2021/03/06 07:24:26;;;;;;;5.10;4.33;;;2.10;94.00;;;;;;5030650;28;20579;-70
2021/03/06 07:26:52;;;;;;;6.13;4.00;;;2.20;95.50;;;;;;5029338;28;20450;-69
2021/03/06 07:29:22;;;;;;;5.77;3.83;;;2.20;93.90;;;;;;5022762;28;20423;-68
2021/03/06 07:31:56;;;;;;;7.23;3.70;;;2.30;94.80;;;;;;5011151;28;20669;-68
2021/03/06 07:34:24;;;;;;;5.93;3.97;;;2.40;93.90;;;;;;5011032;28;20470;-68
2021/03/06 07:36:53;;;;;;;5.30;3.77;;;2.40;92.80;;;;;;5029319;28;20442;-67
2021/03/06 07:39:19;;;;;;;4.00;3.60;;;2.50;93.40;;;;;;5030169;28;20450;-67
2021/03/06 07:41:53;;;;;;;7.47;4.00;;;2.60;94.10;;;;;;5030230;28;20484;-68
2021/03/06 07:44:23;;;;;;;7.23;4.30;;;2.70;93.00;;;;;;5030603;28;20182;-66
2021/03/06 07:46:50;;;;;;;5.23;3.87;;;2.70;91.60;;;;;;5010817;28;20443;-67
2021/03/06 07:49:16;;;;;;;5.80;3.67;;;2.80;93.40;;;;;;5010528;28;20411;-67
2021/03/06 07:51:45;;;;;;;6.50;3.87;;;2.80;91.30;;;;;;5010987;28;20419;-67
2021/03/06 07:54:14;;;;;;;4.40;3.73;;;2.90;91.70;;;;;;5010557;28;20419;-68
2021/03/06 07:56:40;;;;;;;4.87;4.07;;;3.00;91.20;;;;;;5010856;28;20419;-68
2021/03/06 07:59:07;;;;;;;5.20;3.47;;;3.10;90.20;;;;;;5010572;28;20455;-69
2021/03/06 08:01:34;;;;;;;5.50;3.50;;;3.10;90.60;;;;;;5010365;28;20412;-66
2021/03/06 08:04:01;;;;;;;4.27;3.50;;;3.20;89.80;;;;;;5010500;28;20490;-69
2021/03/06 08:06:31;;;;;;;5.30;3.10;;;3.20;87.80;;;;;;5010688;28;20403;-68
2021/03/06 08:09:05;;;;;;;5.50;4.03;;;3.20;87.20;;;;;;5014425;28;20419;-68
2021/03/06 08:11:34;;;;;;;6.13;3.60;;;3.20;89.20;;;;;;5014646;28;20539;-67
2021/03/06 08:14:04;;;;;;;7.37;3.57;;;3.30;89.40;;;;;;5013806;28;20415;-67
2021/03/06 08:16:30;;;;;;;5.10;3.83;;;3.30;88.50;;;;;;5014678;28;20423;-69
2021/03/06 08:19:14;;;;;;;4.73;3.70;;;3.30;87.20;;;;;;5014433;28;20554;-68
2021/03/06 08:21:44;;;;;;;5.13;3.77;;;3.30;87.10;;;;;;5014451;28;20809;-66
2021/03/06 08:24:19;;;;;;;5.73;2.87;;;3.40;86.60;;;;;;5014566;28;20905;-68
2021/03/06 08:27:02;;;;;;;6.30;3.57;;;3.50;87.10;;;;;;5014679;28;20485;-68
2021/03/06 08:29:28;;;;;;;4.20;3.40;;;3.50;87.30;;;;;;4996083;28;20443;-68
2021/03/06 08:31:55;;;;;;;5.50;3.67;;;3.60;86.60;;;;;;5014225;28;20511;-67
2021/03/06 08:34:32;;;;;;;9.00;4.63;;;3.60;81.40;;;;;;5013955;28;20426;-67
2021/03/06 08:37:15;;;;;;;5.47;4.00;;;3.60;85.40;;;;;;5014300;28;20419;-68
2021/03/06 08:39:49;;;;;;;5.37;4.23;;;3.60;84.40;;;;;;5013733;28;20510;-65
2021/03/06 08:42:17;;;;;;;5.20;3.80;;;3.70;84.40;;;;;;5013909;28;20515;-66
2021/03/06 08:44:43;;;;;;;8.03;4.30;;;3.80;83.20;;;;;;5014162;28;20423;-68
2021/03/06 08:47:09;;;;;;;5.00;3.60;;;3.80;84.20;;;;;;5015328;28;20517;-68
2021/03/06 08:49:36;;;;;;;7.13;4.20;;;3.90;83.60;;;;;;5013805;28;20420;-68
2021/03/06 08:52:02;;;;;;;5.17;4.23;;;4.00;85.20;;;;;;5013692;28;20513;-67
2021/03/06 08:54:36;;;;;;;6.00;3.90;;;4.00;83.20;;;;;;5013868;28;20463;-65
2021/03/06 08:57:01;;;;;;;9.87;4.23;;;4.10;85.40;;;;;;4996021;28;20207;-69
2021/03/06 08:59:39;;;;;;;5.33;3.50;;;4.00;83.60;;;;;;5013784;28;20813;-67
2021/03/06 09:02:15;;;;;;;4.13;3.70;;;4.10;84.70;;;;;;5013672;28;20195;-69
2021/03/06 09:04:41;;;;;;;5.53;3.70;;;4.10;82.60;;;;;;5013477;28;20414;-67
2021/03/06 09:07:11;;;;;;;4.37;3.60;;;4.20;84.70;;;;;;5013618;28;20411;-68
2021/03/06 09:09:36;;;;;;;6.37;4.27;;;4.20;86.20;;;;;;5013498;28;20165;-68
2021/03/06 09:12:02;;;;;;;4.90;4.33;;;4.30;85.40;;;;;;5013348;28;20430;-68
2021/03/06 09:14:29;;;;;;;5.10;3.87;;;4.30;84.80;;;;;;5013702;28;20202;-68
2021/03/06 09:16:54;;;;;;;8.07;4.33;;;4.40;85.30;;;;;;5013222;28;20854;-67
2021/03/06 09:19:25;;;;;;;6.03;4.67;;;4.50;84.60;;;;;;5012084;28;20493;-67
2021/03/06 09:22:02;;;;;;;7.40;4.90;;;4.60;84.10;;;;;;5013063;28;20176;-70
2021/03/06 09:24:48;;;;;;;6.10;4.17;;;4.70;82.30;;;;;;5013443;28;20419;-68
2021/03/06 09:27:18;;;;;;;4.87;3.73;;;4.80;83.20;;;;;;5012991;28;20789;-68
2021/03/06 09:29:45;;;;;;;4.20;3.40;;;4.90;81.80;;;;;;5013508;28;20447;-68
2021/03/06 09:32:11;;;;;;;7.70;3.40;;;4.80;79.00;;;;;;4995887;28;20435;-67
2021/03/06 09:34:38;;;;;;;4.20;3.30;;;4.90;77.70;;;;;;5013838;28;20424;-69
2021/03/06 09:37:18;;;;;;;5.10;3.80;;;5.10;79.50;;;;;;5013147;28;20477;-69
2021/03/06 09:39:43;;;;;;;4.37;3.50;;;5.20;77.70;;;;;;5013146;28;20960;-68
2021/03/06 09:42:09;;;;;;;4.57;3.73;;;5.30;75.80;;;;;;5012979;28;20412;-67
2021/03/06 09:44:36;;;;;;;4.20;3.30;;;5.40;73.20;;;;;;5013170;28;20173;-68
2021/03/06 09:47:02;;;;;;;5.27;3.87;;;5.40;74.30;;;;;;5014436;28;20240;-70
2021/03/06 09:49:35;;;;;;;4.00;3.60;;;5.40;70.60;;;;;;5012518;28;20502;-68
2021/03/06 09:52:01;;;;;;;5.27;3.70;;;5.50;71.50;;;;;;5013195;28;20415;-67
2021/03/06 09:54:34;;;;;;;5.43;3.60;;;5.50;71.10;;;;;;5012660;28;20506;-66
2021/03/06 09:57:01;;;;;;;5.30;3.40;;;5.50;70.60;;;;;;5013036;28;20416;-70
2021/03/06 09:59:29;;;;;;;4.00;3.57;;;5.60;72.10;;;;;;5012672;28;20551;-66
2021/03/06 10:02:05;;;;;;;3.57;2.93;;;5.60;68.60;;;;;;5012863;28;20412;-66
2021/03/06 10:04:31;;;;;;;5.40;3.27;;;5.70;68.00;;;;;;5012750;28;20439;-66
2021/03/06 10:06:58;;;;;;;6.53;3.47;;;5.80;65.10;;;;;;5012632;28;20790;-66
2021/03/06 10:09:26;;;;;;;4.67;3.47;;;5.80;65.20;;;;;;5012598;28;20692;-66
2021/03/06 10:12:01;;;;;;;4.10;3.70;;;5.90;63.50;;;;;;5012716;28;20451;-68
2021/03/06 10:14:27;;;;;;;5.13;3.30;;;5.90;63.60;;;;;;5012486;28;20466;-67
2021/03/06 10:16:59;;;;;;;4.13;3.20;;;6.00;64.20;;;;;;5012799;28;20419;-67
2021/03/06 10:19:30;;;;;;;6.37;3.73;;;6.00;64.20;;;;;;5012053;28;20458;-68
2021/03/06 10:22:01;;;;;;;3.83;3.00;;;6.10;62.10;;;;;;5012320;28;20415;-67
2021/03/06 10:24:27;;;;;;;4.53;3.53;;;6.10;61.90;;;;;;5012084;28;20466;-66
2021/03/06 10:26:58;;;;;;;4.00;3.20;;;6.20;62.80;;;;;;5012152;28;20428;-67
2021/03/06 10:29:25;;;;;;;3.60;2.83;;;6.20;60.20;;;;;;5012086;28;20184;-67
2021/03/06 10:32:01;;;;;;;3.40;3.00;;;6.30;60.60;;;;;;4994714;28;20412;-68
2021/03/06 10:34:32;;;;;;;5.47;3.43;;;6.30;60.10;;;;;;4994470;28;20414;-67
2021/03/06 10:37:10;;;;;;;4.27;3.40;;;6.40;59.50;;;;;;5012044;28;20416;-68
2021/03/06 10:40:07;;;;;;;6.00;3.30;;;6.40;59.20;;;;;;5011725;28;20466;-65
2021/03/06 10:42:45;;;;;;;4.23;2.80;;;6.60;57.90;;;;;;5011989;28;20528;-67
2021/03/06 10:45:29;;;;;;;3.00;2.80;;;6.70;56.40;;;;;;5011876;28;20404;-67
2021/03/06 10:48:00;;;;;;;6.93;3.00;;;6.80;58.80;;;;;;5012913;28;20482;-68
2021/03/06 10:50:31;;;;;;;4.07;3.30;;;6.90;59.40;;;;;;5011843;28;20837;-69
2021/03/06 10:53:14;;;;;;;3.40;2.73;;;7.00;56.30;;;;;;4994128;28;20450;-66
2021/03/06 10:55:41;;;;;;;4.17;3.00;;;7.20;57.20;;;;;;5011612;28;20415;-67
2021/03/06 10:58:07;;;;;;;3.27;2.97;;;7.20;53.70;;;;;;4993873;28;20415;-68
2021/03/06 11:00:41;;;;;;;3.03;2.53;;;7.20;55.20;;;;;;5011471;28;20451;-67
2021/03/06 11:03:09;;;;;;;3.83;2.53;;;7.30;55.10;;;;;;5011304;28;20422;-69
2021/03/06 11:05:35;;;;;;;3.80;2.63;;;7.30;54.50;;;;;;4993348;28;20415;-69
2021/03/06 11:08:19;;;;;;;5.83;3.53;;;7.50;54.50;;;;;;5010987;28;20403;-68
2021/03/06 11:10:47;;;;;;;5.60;3.33;;;7.50;52.50;;;;;;5011241;28;20419;-67
2021/03/06 11:13:13;;;;;;;3.40;2.57;;;7.50;51.90;;;;;;5011165;28;20420;-69
2021/03/06 11:15:54;;;;;;;3.37;2.60;;;7.60;52.90;;;;;;5010994;28;20426;-69
2021/03/06 11:18:20;;;;;;;2.87;2.30;;;7.80;51.00;;;;;;4993454;28;20435;-66
2021/03/06 11:20:48;;;;;;;2.87;2.57;;;8.00;50.30;;;;;;5010617;28;20513;-66
2021/03/06 11:23:14;;;;;;;4.43;2.40;;;8.10;51.40;;;;;;4993154;28;20470;-66
2021/03/06 11:25:40;;;;;;;3.87;2.43;;;8.30;51.90;;;;;;5010877;28;20427;-66
2021/03/06 11:28:07;;;;;;;3.77;2.63;;;8.20;50.80;;;;;;5011073;28;20176;-66
2021/03/06 11:30:38;;;;;;;3.80;2.77;;;8.30;49.10;;;;;;5010936;28;20258;-68
2021/03/06 11:33:09;;;;;;;2.90;2.60;;;8.40;50.00;;;;;;5010886;28;20419;-68
2021/03/06 11:35:35;;;;;;;3.10;2.20;;;8.40;47.60;;;;;;5010885;28;20940;-66
2021/03/06 11:38:01;;;;;;;4.27;1.97;;;8.50;46.60;;;;;;5010953;28;20427;-67
2021/03/06 11:40:30;;;;;;;4.23;2.00;;;8.60;45.60;;;;;;5011028;28;22025;-68
2021/03/06 11:42:56;;;;;;;3.63;2.33;;;8.80;47.20;;;;;;5010796;28;20426;-68
2021/03/06 11:45:22;;;;;;;2.47;2.10;;;9.00;47.40;;;;;;5011063;28;20416;-68
2021/03/06 11:47:49;;;;;;;2.70;2.30;;;9.30;46.20;;;;;;4997312;28;20463;-68
2021/03/06 11:50:17;;;;;;;5.23;2.33;;;9.40;45.50;;;;;;4992320;28;20435;-68
2021/03/06 11:52:44;;;;;;;3.63;2.37;;;9.50;46.20;;;;;;4992688;28;20416;-67
2021/03/06 11:55:11;;;;;;;2.80;2.20;;;9.60;45.80;;;;;;4991662;28;20902;-67
2021/03/06 11:57:38;;;;;;;2.47;1.97;;;9.80;45.40;;;;;;4991529;28;20509;-67
2021/03/06 12:00:06;;;;;;;2.80;2.20;;;10.10;43.90;;;;;;4993471;28;20802;-65
2021/03/06 12:02:32;;;;;;;3.07;2.23;;;10.20;44.20;;;;;;4975557;28;20490;-67
2021/03/06 12:04:58;;;;;;;2.43;2.10;;;10.40;43.10;;;;;;4997506;28;20411;-68
2021/03/06 12:07:23;;;;;;;3.17;2.47;;;10.70;42.90;;;;;;5013089;28;20239;-69
2021/03/06 12:09:49;;;;;;;3.57;2.50;;;10.90;41.40;;;;;;5012388;28;20180;-68
2021/03/06 12:12:15;;;;;;;3.03;2.10;;;11.20;41.40;;;;;;5011661;28;20265;-65
2021/03/06 12:14:40;;;;;;;3.40;2.37;;;11.40;40.80;;;;;;5011936;28;20689;-67
2021/03/06 12:17:06;;;;;;;4.10;2.40;;;11.70;38.80;;;;;;5012320;28;20246;-68
2021/03/06 12:19:32;;;;;;;3.97;2.70;;;12.00;39.80;;;;;;5012012;28;20207;-67
2021/03/06 12:21:57;;;;;;;4.77;2.83;;;12.30;39.80;;;;;;4994392;28;20213;-67
2021/03/06 12:24:23;;;;;;;4.43;2.70;;;12.60;38.40;;;;;;5012446;28;20177;-70
2021/03/06 12:26:51;;;;;;;3.13;2.00;;;13.10;39.50;;;;;;5011584;28;20223;-69
2021/03/06 12:29:17;;;;;;;2.00;1.80;;;13.20;36.60;;;;;;4992218;28;20200;-68
2021/03/06 12:31:43;;;;;;;2.77;2.10;;;13.60;36.10;;;;;;4991472;28;20247;-70
2021/03/06 12:34:08;;;;;;;3.17;2.37;;;14.00;34.30;;;;;;4991103;28;20185;-69
2021/03/06 12:36:36;;;;;;;3.17;2.20;;;14.50;35.10;;;;;;4991638;28;20181;-69
2021/03/06 12:39:03;;;;;;;3.27;2.33;;;15.00;33.10;;;;;;5010535;28;20179;-66
2021/03/06 12:41:28;;;;;;;3.10;2.30;;;15.20;32.00;;;;;;5010937;28;20169;-66
2021/03/06 12:43:54;;;;;;;3.07;2.33;;;15.40;30.40;;;;;;5010165;28;20235;-68
2021/03/06 12:46:22;;;;;;;2.30;2.10;;;15.60;32.50;;;;;;5011304;28;20724;-68
2021/03/06 12:48:49;;;;;;;3.07;1.93;;;16.00;30.00;;;;;;5010281;28;20208;-67
2021/03/06 12:51:14;;;;;;;4.07;2.27;;;16.10;28.20;;;;;;5010057;28;20188;-70
2021/03/06 12:53:40;;;;;;;5.20;2.30;;;16.30;28.60;;;;;;5011883;28;20183;-69
2021/03/06 12:56:06;;;;;;;3.30;2.47;;;16.30;30.00;;;;;;5014304;28;20173;-67
2021/03/06 12:58:32;;;;;;;2.23;2.03;;;16.40;29.20;;;;;;5013727;28;20177;-66
2021/03/06 13:00:58;;;;;;;3.50;2.20;;;16.40;28.60;;;;;;5013547;28;20281;-69
2021/03/06 13:03:23;;;;;;;4.70;2.80;;;16.30;28.30;;;;;;5013513;28;20180;-70
2021/03/06 13:05:49;;;;;;;2.93;2.60;;;15.90;27.60;;;;;;5013651;28;20725;-70